createdAt,value
2023-04-08T00:01:59.257Z,24.15
2023-04-08T00:04:26.430Z,22.02
2023-04-08T00:06:53.654Z,24.38
2023-04-08T00:09:20.968Z,22.27
2023-04-08T00:11:48.085Z,23.60
2023-04-08T00:14:15.725Z,24.63
2023-04-08T00:16:42.850Z,22.50
2023-04-08T00:19:10.890Z,24.33
2023-04-08T00:21:37.962Z,25.40
2023-04-08T00:24:05.593Z,22.90
2023-04-08T00:26:32.733Z,23.92
2023-04-08T00:28:59.869Z,23.25
2023-04-08T00:31:27.217Z,21.55
2023-04-08T00:33:54.410Z,24.20
2023-04-08T00:36:21.494Z,20.52
2023-04-08T00:38:48.903Z,21.88
2023-04-08T00:41:16.422Z,20.42
2023-04-08T00:43:43.515Z,19.55
2023-04-08T00:46:10.793Z,22.95
2023-04-08T00:48:37.977Z,20.65
2023-04-08T00:51:05.524Z,20.02
2023-04-08T00:53:32.677Z,21.80
2023-04-08T00:56:01.310Z,22.30
2023-04-08T00:58:29.360Z,21.30
2023-04-08T01:01:02.306Z,20.77
2023-04-08T01:03:32.306Z,22.60
2023-04-08T01:06:21.021Z,24.02
2023-04-08T01:08:49.150Z,22.80
2023-04-08T01:11:16.677Z,22.52
2023-04-08T01:13:45.238Z,22.15
2023-04-08T01:16:14.154Z,21.38
2023-04-08T01:18:42.805Z,21.80
2023-04-08T01:21:10.779Z,23.63
2023-04-08T01:23:42.114Z,23.17
2023-04-08T01:26:11.105Z,23.95
2023-04-08T01:28:39.113Z,23.27
2023-04-08T01:31:06.948Z,26.13
2023-04-08T01:33:34.768Z,25.08
2023-04-08T01:36:02.277Z,22.00
2023-04-08T01:38:30.051Z,24.23
2023-04-08T01:40:57.400Z,23.55
2023-04-08T01:43:25.404Z,22.90
2023-04-08T01:45:58.046Z,23.52
2023-04-08T01:50:53.948Z,25.80
2023-04-08T01:53:21.128Z,25.77
2023-04-08T01:55:49.413Z,28.42
2023-04-08T01:58:19.349Z,27.23
2023-04-08T02:00:47.288Z,26.13
2023-04-08T02:03:15.564Z,26.70
2023-04-08T02:05:42.920Z,25.15
2023-04-08T02:08:10.085Z,28.52
2023-04-08T02:10:37.186Z,25.90
2023-04-08T02:13:04.355Z,26.17
2023-04-08T02:15:35.010Z,25.52
2023-04-08T02:18:08.181Z,25.48
2023-04-08T02:20:39.956Z,26.33
2023-04-08T02:23:09.908Z,22.90
2023-04-08T02:25:39.479Z,23.77
2023-04-08T02:28:07.442Z,25.13
2023-04-08T02:30:36.413Z,24.42
2023-04-08T02:33:07.319Z,23.05
2023-04-08T02:35:34.866Z,23.63
2023-04-08T02:38:02.041Z,27.13
2023-04-08T02:40:30.457Z,20.08
2023-04-08T02:42:57.999Z,22.70
2023-04-08T02:45:29.122Z,21.70
2023-04-08T02:47:56.232Z,22.42
2023-04-08T02:50:23.420Z,23.17
2023-04-08T02:52:50.622Z,22.13
2023-04-08T02:55:17.718Z,22.02
2023-04-08T02:57:44.904Z,19.05
2023-04-08T03:00:12.378Z,19.23
2023-04-08T03:02:39.621Z,19.50
2023-04-08T03:05:07.231Z,17.20
2023-04-08T03:07:34.551Z,19.95
2023-04-08T03:10:01.714Z,17.15
2023-04-08T03:12:28.866Z,18.35
2023-04-08T03:14:55.988Z,19.13
2023-04-08T03:17:23.268Z,19.80
2023-04-08T03:19:50.412Z,17.98
2023-04-08T03:22:17.644Z,18.58
2023-04-08T03:24:44.757Z,18.48
2023-04-08T03:27:12.723Z,21.52
2023-04-08T03:29:39.989Z,22.60
2023-04-08T03:32:07.393Z,20.13
2023-04-08T03:34:35.566Z,25.23
2023-04-08T03:37:02.951Z,24.95
2023-04-08T03:39:30.575Z,19.75
2023-04-08T03:41:59.885Z,25.50
2023-04-08T03:44:27.355Z,23.77
2023-04-08T03:46:54.471Z,22.38
2023-04-08T03:49:21.779Z,27.63
2023-04-08T03:51:48.858Z,24.33
2023-04-08T03:54:15.982Z,26.40
2023-04-08T03:56:43.083Z,27.55
2023-04-08T03:59:10.241Z,27.60
2023-04-08T04:01:37.346Z,27.83
2023-04-08T04:04:04.785Z,26.52
2023-04-08T04:06:32.250Z,30.23
2023-04-08T04:08:59.471Z,26.52
2023-04-08T04:11:27.210Z,29.42
2023-04-08T04:13:54.376Z,29.67
2023-04-08T04:16:21.600Z,32.08
2023-04-08T04:18:48.954Z,28.45
2023-04-08T04:21:16.533Z,29.20
2023-04-08T04:23:43.757Z,29.70
2023-04-08T04:26:11.144Z,29.27
2023-04-08T04:28:38.705Z,31.92
2023-04-08T04:31:05.995Z,34.50
2023-04-08T04:33:33.118Z,30.92
2023-04-08T04:36:00.415Z,33.70
2023-04-08T04:38:27.555Z,37.05
2023-04-08T04:40:54.741Z,36.97
2023-04-08T04:43:21.910Z,35.10
2023-04-08T04:45:49.002Z,34.67
2023-04-08T04:48:16.220Z,33.22
2023-04-08T04:50:43.379Z,34.85
2023-04-08T04:53:10.695Z,38.10
2023-04-08T04:55:39.263Z,36.17
2023-04-08T04:58:06.733Z,34.78
2023-04-08T05:00:34.003Z,35.20
2023-04-08T05:03:01.222Z,36.30
2023-04-08T05:05:28.498Z,35.88
2023-04-08T05:07:55.749Z,36.25
2023-04-08T05:10:22.854Z,31.73
2023-04-08T05:12:49.957Z,33.25
2023-04-08T05:15:17.125Z,34.85
2023-04-08T05:17:44.223Z,36.60
2023-04-08T05:20:11.592Z,34.65
2023-04-08T05:22:38.706Z,31.23
2023-04-08T05:25:06.464Z,28.65
2023-04-08T05:27:33.628Z,32.20
2023-04-08T05:30:00.899Z,29.42
2023-04-08T05:32:29.687Z,31.55
2023-04-08T05:34:56.805Z,27.83
2023-04-08T05:37:23.924Z,26.80
2023-04-08T05:39:51.296Z,27.20
2023-04-08T05:42:18.444Z,25.00
2023-04-08T05:44:45.612Z,24.77
2023-04-08T05:47:13.122Z,27.85
2023-04-08T05:49:40.231Z,24.17
2023-04-08T05:52:07.534Z,27.17
2023-04-08T05:54:34.624Z,24.85
2023-04-08T05:57:01.739Z,22.00
2023-04-08T05:59:28.869Z,21.92
2023-04-08T06:01:57.023Z,22.60
2023-04-08T06:04:24.571Z,23.23
2023-04-08T06:06:51.836Z,25.13
2023-04-08T06:09:18.980Z,28.08
2023-04-08T06:11:47.303Z,31.13
2023-04-08T06:14:14.479Z,24.17
2023-04-08T06:16:41.711Z,28.95
2023-04-08T06:19:08.820Z,27.67
2023-04-08T06:21:36.279Z,24.30
2023-04-08T06:24:03.366Z,21.83
2023-04-08T06:26:30.478Z,25.25
2023-04-08T06:28:57.594Z,24.65
2023-04-08T06:31:24.840Z,24.52
2023-04-08T06:33:52.412Z,22.92
2023-04-08T06:36:19.513Z,23.38
2023-04-08T06:38:46.600Z,25.58
2023-04-08T06:41:13.713Z,30.55
2023-04-08T06:43:40.979Z,25.45
2023-04-08T06:46:08.159Z,22.08
2023-04-08T06:48:35.376Z,25.05
2023-04-08T06:51:02.541Z,21.77
2023-04-08T06:53:30.722Z,21.88
2023-04-08T06:55:57.786Z,22.42
2023-04-08T06:58:24.992Z,22.00
2023-04-08T07:00:52.098Z,21.45
2023-04-08T07:03:19.310Z,19.77
2023-04-08T07:05:46.730Z,20.25
2023-04-08T07:08:13.794Z,17.80
2023-04-08T07:10:42.017Z,20.58
2023-04-08T07:13:09.328Z,18.20
2023-04-08T07:15:36.723Z,18.20
2023-04-08T07:18:04.784Z,19.17
2023-04-08T07:20:32.382Z,21.70
2023-04-08T07:22:59.620Z,17.73
2023-04-08T07:25:27.037Z,18.98
2023-04-08T07:27:54.306Z,18.13
2023-04-08T07:30:22.261Z,18.02
2023-04-08T07:32:49.485Z,18.02
2023-04-08T07:35:23.955Z,16.77
2023-04-08T07:37:51.538Z,19.98
2023-04-08T07:40:18.644Z,20.95
2023-04-08T07:42:45.804Z,17.98
2023-04-08T07:45:13.039Z,19.10
2023-04-08T07:47:40.656Z,19.35
2023-04-08T07:50:08.219Z,15.80
2023-04-08T07:52:35.467Z,18.80
2023-04-08T07:55:02.633Z,16.08
2023-04-08T07:57:29.811Z,16.40
2023-04-08T07:59:57.052Z,15.85
2023-04-08T08:02:24.333Z,14.65
2023-04-08T08:04:51.541Z,15.80
2023-04-08T08:07:18.724Z,12.75
2023-04-08T08:09:45.857Z,13.10
2023-04-08T08:12:12.969Z,14.30
2023-04-08T08:14:40.665Z,13.98
2023-04-08T08:17:07.878Z,13.20
2023-04-08T08:19:35.093Z,11.27
2023-04-08T08:22:02.209Z,14.73
2023-04-08T08:24:29.325Z,14.80
2023-04-08T08:26:56.705Z,13.68
2023-04-08T08:29:23.785Z,15.35
2023-04-08T08:31:50.979Z,16.20
2023-04-08T08:34:18.119Z,14.07
2023-04-08T08:36:45.201Z,16.63
2023-04-08T08:39:12.290Z,14.23
2023-04-08T08:41:39.427Z,16.02
2023-04-08T08:44:07.595Z,13.48
2023-04-08T08:46:35.129Z,12.90
2023-04-08T08:49:02.532Z,14.27
2023-04-08T08:51:30.483Z,14.70
2023-04-08T08:53:57.583Z,14.90
2023-04-08T08:56:24.738Z,14.35
2023-04-08T08:58:51.862Z,15.48
2023-04-08T09:01:38.593Z,13.05
2023-04-08T09:04:07.866Z,14.13
2023-04-08T09:06:35.372Z,14.43
2023-04-08T09:09:04.381Z,14.10
2023-04-08T09:11:31.468Z,15.20
2023-04-08T09:13:58.551Z,13.63
2023-04-08T09:16:25.813Z,13.52
2023-04-08T09:18:53.006Z,13.45
2023-04-08T09:21:23.743Z,14.68
2023-04-08T09:23:52.560Z,15.75
2023-04-08T09:26:22.196Z,15.07
2023-04-08T09:29:25.624Z,14.57
2023-04-08T09:31:57.583Z,12.77
2023-04-08T09:34:25.220Z,15.32
2023-04-08T09:36:52.949Z,14.20
2023-04-08T09:39:20.369Z,12.23
2023-04-08T09:41:51.085Z,14.05
2023-04-08T09:44:20.828Z,13.20
2023-04-08T09:46:51.581Z,12.20
2023-04-08T09:49:35.249Z,15.45
2023-04-08T09:52:16.056Z,12.95
2023-04-08T09:54:53.972Z,13.77
2023-04-08T09:57:39.836Z,12.07
2023-04-08T10:00:17.429Z,16.20
2023-04-08T10:02:57.269Z,11.63
2023-04-08T10:05:25.619Z,13.30
2023-04-08T10:07:53.631Z,14.02
2023-04-08T10:10:21.204Z,11.40
2023-04-08T10:12:49.284Z,14.48
2023-04-08T10:15:26.395Z,11.85
2023-04-08T10:17:57.649Z,15.07
2023-04-08T10:20:33.764Z,12.40
2023-04-08T10:23:10.771Z,9.90
2023-04-08T10:25:38.693Z,11.77
2023-04-08T10:28:11.909Z,11.52
2023-04-08T10:30:39.172Z,11.23
2023-04-08T10:33:13.407Z,12.48
2023-04-08T10:35:46.741Z,9.35
2023-04-08T10:38:14.741Z,11.05
2023-04-08T10:40:42.830Z,11.73
2023-04-08T10:43:10.816Z,10.77
2023-04-08T10:45:38.274Z,12.40
2023-04-08T10:48:14.402Z,11.20
2023-04-08T10:50:41.794Z,9.75
2023-04-08T10:53:09.168Z,10.07
2023-04-08T10:55:36.363Z,10.35
2023-04-08T10:58:11.280Z,12.27
2023-04-08T11:00:39.263Z,11.07
2023-04-08T11:03:11.654Z,13.65
2023-04-08T11:05:40.258Z,11.38
2023-04-08T11:08:07.855Z,11.07
2023-04-08T11:10:38.630Z,10.65
2023-04-08T11:13:07.967Z,10.90
2023-04-08T11:15:36.360Z,10.02
2023-04-08T11:18:04.514Z,11.88
2023-04-08T11:20:34.503Z,11.93
2023-04-08T11:23:01.570Z,12.20
2023-04-08T11:25:29.334Z,10.20
2023-04-08T11:27:56.574Z,15.27
2023-04-08T11:30:24.190Z,11.45
2023-04-08T11:32:52.227Z,12.68
2023-04-08T11:35:19.513Z,10.65
2023-04-08T11:37:47.742Z,12.63
2023-04-08T11:40:20.419Z,11.98
2023-04-08T11:42:47.638Z,13.50
2023-04-08T11:45:19.541Z,10.43
2023-04-08T11:47:47.250Z,6.80
2023-04-08T11:50:23.140Z,8.73
2023-04-08T11:52:51.048Z,8.50
2023-04-08T11:55:31.165Z,7.63
2023-04-08T11:58:02.398Z,9.43
2023-04-08T12:00:29.513Z,8.02
2023-04-08T12:02:56.649Z,6.15
2023-04-08T12:05:23.790Z,7.28
2023-04-08T12:07:51.051Z,8.13
2023-04-08T12:10:18.160Z,9.13
2023-04-08T12:12:45.329Z,7.70
2023-04-08T12:15:12.681Z,8.48
2023-04-08T12:17:39.891Z,10.77
2023-04-08T12:20:07.689Z,10.18
2023-04-08T12:22:34.923Z,9.32
2023-04-08T12:25:03.653Z,10.02
2023-04-08T12:27:33.375Z,9.60
2023-04-08T12:30:01.001Z,11.25
2023-04-08T12:32:28.195Z,8.18
2023-04-08T12:34:55.986Z,10.18
2023-04-08T12:37:23.115Z,10.35
2023-04-08T12:39:50.287Z,12.68
2023-04-08T12:42:17.488Z,10.38
2023-04-08T12:44:44.640Z,9.40
2023-04-08T12:47:11.954Z,10.13
2023-04-08T12:52:09.205Z,8.00
2023-04-08T12:54:36.388Z,9.30
2023-04-08T12:57:04.584Z,11.00
2023-04-08T12:59:33.483Z,10.57
2023-04-08T13:02:00.634Z,9.52
2023-04-08T13:04:27.757Z,9.55
2023-04-08T13:06:55.529Z,8.07
2023-04-08T13:09:23.003Z,7.88
2023-04-08T13:11:50.317Z,8.82
2023-04-08T13:14:17.572Z,7.55
2023-04-08T13:16:44.776Z,7.97
2023-04-08T13:19:11.983Z,10.20
2023-04-08T13:21:39.095Z,8.75
2023-04-08T13:24:06.575Z,7.13
2023-04-08T13:26:33.708Z,11.18
2023-04-08T13:29:01.308Z,7.57
2023-04-08T13:31:28.675Z,7.70
2023-04-08T13:33:57.996Z,6.70
2023-04-08T13:36:26.780Z,9.05
2023-04-08T13:38:54.527Z,7.78
2023-04-08T13:41:21.899Z,6.43
2023-04-08T13:43:50.414Z,6.13
2023-04-08T13:46:18.112Z,8.90
2023-04-08T13:48:46.269Z,7.10
2023-04-08T13:51:13.558Z,6.40
2023-04-08T13:53:40.755Z,7.18
2023-04-08T13:56:08.053Z,7.68
2023-04-08T13:58:35.236Z,6.65
2023-04-08T14:01:02.775Z,7.55
2023-04-08T14:03:30.020Z,4.95
2023-04-08T14:06:01.094Z,8.30
2023-04-08T14:08:28.938Z,6.47
2023-04-08T14:10:59.291Z,6.57
2023-04-08T14:13:26.500Z,7.20
2023-04-08T14:15:54.994Z,7.72
2023-04-08T14:18:22.219Z,7.60
2023-04-08T14:20:49.363Z,6.90
2023-04-08T14:23:16.903Z,6.60
2023-04-08T14:25:44.123Z,7.00
2023-04-08T14:28:11.480Z,7.05
2023-04-08T14:30:38.617Z,6.07
2023-04-08T14:33:06.181Z,6.82
2023-04-08T14:35:33.475Z,6.65
2023-04-08T14:38:01.232Z,8.43
2023-04-08T14:40:28.432Z,8.48
2023-04-08T14:42:55.550Z,8.35
2023-04-08T14:45:22.692Z,10.18
2023-04-08T14:47:49.911Z,113.45
2023-04-08T14:50:17.331Z,8.65
2023-04-08T14:52:45.313Z,6.38
2023-04-08T14:55:12.719Z,6.95
2023-04-08T14:57:39.869Z,7.18
2023-04-08T15:00:07.705Z,7.68
2023-04-08T15:02:35.045Z,8.38
2023-04-08T15:05:02.181Z,8.50
2023-04-08T15:07:29.294Z,10.15
2023-04-08T15:09:56.889Z,8.73
2023-04-08T15:12:24.453Z,7.68
2023-04-08T15:14:51.574Z,7.45
2023-04-08T15:17:18.870Z,9.27
2023-04-08T15:19:47.000Z,6.88
2023-04-08T15:22:14.164Z,6.80
2023-04-08T15:24:42.548Z,9.18
2023-04-08T15:27:09.835Z,7.60
2023-04-08T15:29:37.041Z,7.88
2023-04-08T15:32:04.179Z,9.65
2023-04-08T15:34:31.279Z,8.75
2023-04-08T15:36:58.705Z,8.70
2023-04-08T15:39:25.964Z,8.25
2023-04-08T15:41:53.279Z,7.15
2023-04-08T15:44:20.529Z,7.65
2023-04-08T15:46:47.651Z,9.57
2023-04-08T15:49:15.490Z,8.77
2023-04-08T15:51:44.518Z,9.50
2023-04-08T15:54:11.859Z,8.52
2023-04-08T15:56:39.017Z,12.07
2023-04-08T15:59:06.205Z,7.47
2023-04-08T16:01:33.560Z,8.45
2023-04-08T16:04:00.985Z,13.48
2023-04-08T16:06:28.319Z,14.25
2023-04-08T16:08:56.760Z,10.88
2023-04-08T16:11:25.196Z,10.98
2023-04-08T16:13:52.333Z,13.65
2023-04-08T16:16:19.868Z,15.82
2023-04-08T16:18:47.629Z,9.75
2023-04-08T16:21:14.895Z,10.82
2023-04-08T16:23:42.072Z,9.45
2023-04-08T16:26:09.285Z,10.13
2023-04-08T16:28:40.036Z,11.23
2023-04-08T16:31:07.617Z,9.73
2023-04-08T16:33:34.796Z,10.27
2023-04-08T16:36:04.116Z,10.20
2023-04-08T16:38:31.330Z,13.30
2023-04-08T16:40:58.892Z,10.50
2023-04-08T16:43:26.442Z,10.27
2023-04-08T16:45:54.065Z,12.25
2023-04-08T16:48:22.304Z,9.75
2023-04-08T16:50:49.498Z,10.82
2023-04-08T16:53:16.638Z,11.02
2023-04-08T16:55:43.763Z,10.27
2023-04-08T16:58:10.952Z,11.45
2023-04-08T17:00:39.400Z,11.45
2023-04-08T17:03:06.697Z,11.65
2023-04-08T17:05:33.908Z,11.15
2023-04-08T17:08:01.604Z,11.15
2023-04-08T17:10:28.888Z,12.25
2023-04-08T17:12:57.740Z,11.07
2023-04-08T17:15:25.025Z,10.32
2023-04-08T17:17:52.136Z,13.32
2023-04-08T17:20:19.458Z,12.38
2023-04-08T17:22:46.872Z,12.80
2023-04-08T17:25:14.044Z,11.50
2023-04-08T17:27:41.311Z,12.55
2023-04-08T17:30:11.144Z,14.18
2023-04-08T17:32:38.711Z,11.80
2023-04-08T17:35:06.261Z,11.13
2023-04-08T17:37:33.387Z,11.00
2023-04-08T17:40:00.550Z,11.20
2023-04-08T17:42:27.745Z,10.90
2023-04-08T17:44:55.985Z,12.90
2023-04-08T17:47:23.151Z,11.65
2023-04-08T17:49:50.356Z,13.95
2023-04-08T17:52:17.637Z,13.25
2023-04-08T17:54:44.747Z,12.73
2023-04-08T17:57:12.935Z,18.08
2023-04-08T17:59:40.052Z,11.73
2023-04-08T18:02:07.392Z,13.63
2023-04-08T18:04:34.588Z,14.82
2023-04-08T18:07:04.514Z,11.25
2023-04-08T18:09:32.009Z,13.75
2023-04-08T18:11:59.179Z,14.02
2023-04-08T18:14:26.338Z,13.20
2023-04-08T18:16:53.489Z,17.05
2023-04-08T18:19:20.683Z,13.25
2023-04-08T18:21:47.864Z,15.07
2023-04-08T18:24:14.940Z,12.70
2023-04-08T18:26:43.795Z,12.02
2023-04-08T18:29:11.229Z,13.80
2023-04-08T18:31:38.393Z,14.95
2023-04-08T18:34:05.535Z,15.27
2023-04-08T18:36:33.024Z,14.18
2023-04-08T18:39:00.237Z,15.00
2023-04-08T18:41:28.000Z,15.95
2023-04-08T18:43:55.576Z,19.98
2023-04-08T18:46:24.340Z,20.38
2023-04-08T18:48:51.520Z,20.60
2023-04-08T18:51:18.682Z,21.80
2023-04-08T18:53:45.886Z,19.23
2023-04-08T18:56:19.622Z,20.13
2023-04-08T18:58:47.118Z,23.20
2023-04-08T19:01:14.868Z,25.67
2023-04-08T19:03:43.276Z,27.25
2023-04-08T19:06:11.491Z,21.67
2023-04-08T19:08:38.643Z,18.30
2023-04-08T19:11:06.356Z,22.80
2023-04-08T19:13:33.753Z,18.00
2023-04-08T19:16:00.973Z,16.88
2023-04-08T19:18:28.192Z,16.92
2023-04-08T19:20:55.275Z,15.45
2023-04-08T19:23:22.434Z,16.05
2023-04-08T19:25:49.536Z,16.83
2023-04-08T19:28:16.620Z,16.10
2023-04-08T19:30:43.771Z,16.58
2023-04-08T19:33:10.946Z,18.60
2023-04-08T19:35:38.671Z,18.75
2023-04-08T19:38:08.060Z,18.42
2023-04-08T19:40:35.357Z,16.23
2023-04-08T19:43:02.552Z,19.10
2023-04-08T19:45:29.610Z,15.57
2023-04-08T19:47:57.072Z,14.90
2023-04-08T19:50:25.421Z,14.40
2023-04-08T19:52:52.608Z,13.57
2023-04-08T19:55:19.819Z,15.55
2023-04-08T19:57:47.466Z,13.35
2023-04-08T20:00:14.667Z,12.98
2023-04-08T20:02:42.086Z,13.98
2023-04-08T20:05:14.778Z,13.95
2023-04-08T20:07:42.025Z,12.43
2023-04-08T20:10:09.541Z,13.40
2023-04-08T20:12:36.713Z,13.75
2023-04-08T20:15:03.854Z,13.65
2023-04-08T20:17:31.407Z,13.75
2023-04-08T20:19:58.559Z,15.18
2023-04-08T20:22:25.705Z,14.98
2023-04-08T20:24:52.928Z,14.00
2023-04-08T20:27:20.076Z,15.98
2023-04-08T20:29:47.473Z,18.75
2023-04-08T20:32:14.570Z,17.77
2023-04-08T20:34:41.799Z,15.10
2023-04-08T20:37:08.878Z,13.05
2023-04-08T20:39:36.161Z,14.95
2023-04-08T20:42:05.324Z,13.20
2023-04-08T20:44:32.448Z,14.02
2023-04-08T20:46:59.620Z,15.30
2023-04-08T20:49:26.749Z,17.60
2023-04-08T20:51:53.864Z,14.32
2023-04-08T20:54:21.056Z,12.02
2023-04-08T20:56:48.170Z,16.20
2023-04-08T20:59:15.492Z,11.98
2023-04-08T21:01:42.756Z,14.02
2023-04-08T21:04:09.871Z,12.15
2023-04-08T21:06:37.593Z,12.02
2023-04-08T21:09:04.783Z,12.80
2023-04-08T21:11:31.896Z,12.45
2023-04-08T21:13:59.000Z,11.68
2023-04-08T21:16:26.114Z,14.55
2023-04-08T21:18:53.488Z,13.40
2023-04-08T21:21:20.767Z,15.13
2023-04-08T21:23:47.968Z,13.77
2023-04-08T21:26:15.288Z,15.02
2023-04-08T21:28:43.847Z,14.52
2023-04-08T21:31:11.762Z,12.57
2023-04-08T21:33:39.300Z,12.40
2023-04-08T21:36:10.036Z,13.40
2023-04-08T21:38:37.162Z,13.82
2023-04-08T21:41:04.270Z,12.85
2023-04-08T21:43:31.525Z,20.20
2023-04-08T21:45:58.661Z,13.65
2023-04-08T21:48:25.940Z,14.85
2023-04-08T21:50:53.414Z,14.63
2023-04-08T21:53:22.149Z,16.63
2023-04-08T21:55:49.289Z,15.50
2023-04-08T21:58:17.219Z,13.73
2023-04-08T22:00:44.791Z,16.52
2023-04-08T22:03:12.239Z,13.63
2023-04-08T22:05:39.613Z,15.45
2023-04-08T22:08:06.748Z,15.98
2023-04-08T22:10:33.875Z,13.40
2023-04-08T22:13:01.328Z,15.00
2023-04-08T22:15:28.553Z,13.90
2023-04-08T22:17:56.025Z,13.98
2023-04-08T22:20:23.252Z,15.57
2023-04-08T22:22:50.360Z,16.23
2023-04-08T22:25:17.522Z,16.40
2023-04-08T22:27:44.662Z,15.70
2023-04-08T22:30:11.974Z,16.58
2023-04-08T22:32:39.197Z,14.93
2023-04-08T22:35:06.563Z,15.70
2023-04-08T22:37:33.701Z,15.55
2023-04-08T22:40:01.420Z,16.77
2023-04-08T22:42:28.581Z,16.25
2023-04-08T22:44:55.816Z,17.15
2023-04-08T22:47:22.982Z,16.00
2023-04-08T22:49:50.386Z,14.93
2023-04-08T22:52:17.582Z,13.65
2023-04-08T22:54:44.682Z,16.73
2023-04-08T22:57:11.832Z,14.40
2023-04-08T22:59:39.003Z,16.65
2023-04-08T23:02:06.239Z,15.98
2023-04-08T23:04:33.379Z,15.23
2023-04-08T23:07:00.601Z,15.95
2023-04-08T23:09:28.262Z,15.93
2023-04-08T23:11:55.936Z,14.90
2023-04-08T23:14:22.997Z,15.52
2023-04-08T23:16:50.271Z,15.15
2023-04-08T23:19:17.488Z,14.48
2023-04-08T23:21:44.621Z,16.65
2023-04-08T23:24:11.683Z,15.43
2023-04-08T23:26:38.772Z,12.98
2023-04-08T23:29:05.875Z,14.60
2023-04-08T23:31:33.052Z,15.50
2023-04-08T23:34:00.308Z,18.40
2023-04-08T23:36:27.625Z,16.67
2023-04-08T23:38:54.973Z,17.20
2023-04-08T23:41:22.176Z,15.18
2023-04-08T23:43:49.350Z,16.27
2023-04-08T23:46:16.759Z,16.83
2023-04-08T23:48:43.926Z,15.63
2023-04-08T23:51:11.851Z,15.60
2023-04-08T23:53:38.970Z,16.42
2023-04-08T23:56:06.579Z,16.70
2023-04-08T23:58:33.912Z,16.08
